sensor_id;sensor_type;location;lat;lon;timestamp;pressure;altitude;pressure_sealevel;temperature;humidity
69780;BME280;57052;55.602;38.096;2022-12-07T00:01:33;101727.22;;;-6.81;57.13
69780;BME280;57052;55.602;38.096;2022-12-07T00:04:02;101726.41;;;-6.82;56.66
69780;BME280;57052;55.602;38.096;2022-12-07T00:06:51;101712.19;;;-6.90;57.23
69780;BME280;57052;55.602;38.096;2022-12-07T00:09:18;101724.97;;;-6.86;56.65
69780;BME280;57052;55.602;38.096;2022-12-07T00:11:44;101713.25;;;-6.93;57.21
69780;BME280;57052;55.602;38.096;2022-12-07T00:14:15;101721.75;;;-6.89;57.37
69780;BME280;57052;55.602;38.096;2022-12-07T00:16:42;101720.44;;;-6.95;56.72
69780;BME280;57052;55.602;38.096;2022-12-07T00:19:10;101708.72;;;-7.02;57.03
69780;BME280;57052;55.602;38.096;2022-12-07T00:21:36;101725.56;;;-6.93;57.51
69780;BME280;57052;55.602;38.096;2022-12-07T00:24:03;101725.84;;;-6.96;57.54
69780;BME280;57052;55.602;38.096;2022-12-07T00:26:31;101714.94;;;-7.03;56.83
69780;BME280;57052;55.602;38.096;2022-12-07T00:29:01;101718.28;;;-7.01;56.98
69780;BME280;57052;55.602;38.096;2022-12-07T00:31:30;101720.09;;;-7.01;56.92
69780;BME280;57052;55.602;38.096;2022-12-07T00:33:57;101699.41;;;-7.17;57.15
69780;BME280;57052;55.602;38.096;2022-12-07T00:36:24;101719.72;;;-7.08;56.69
69780;BME280;57052;55.602;38.096;2022-12-07T00:38:49;101710.50;;;-7.13;57.41
69780;BME280;57052;55.602;38.096;2022-12-07T00:41:17;101712.06;;;-7.11;57.06
69780;BME280;57052;55.602;38.096;2022-12-07T00:43:44;101709.78;;;-7.16;57.09
69780;BME280;57052;55.602;38.096;2022-12-07T00:46:11;101717.81;;;-7.17;56.92
69780;BME280;57052;55.602;38.096;2022-12-07T00:48:37;101723.66;;;-7.13;57.24
69780;BME280;57052;55.602;38.096;2022-12-07T00:51:04;101722.00;;;-7.14;56.91
69780;BME280;57052;55.602;38.096;2022-12-07T00:53:30;101692.56;;;-7.31;57.21
69780;BME280;57052;55.602;38.096;2022-12-07T00:55:56;101718.19;;;-7.22;57.19
69780;BME280;57052;55.602;38.096;2022-12-07T00:58:23;101705.63;;;-7.29;56.73
69780;BME280;57052;55.602;38.096;2022-12-07T01:00:49;101701.53;;;-7.33;57.03
69780;BME280;57052;55.602;38.096;2022-12-07T01:03:15;101695.78;;;-7.38;57.14
69780;BME280;57052;55.602;38.096;2022-12-07T01:05:52;101710.50;;;-7.36;57.11
69780;BME280;57052;55.602;38.096;2022-12-07T01:08:19;101721.13;;;-7.26;57.31
69780;BME280;57052;55.602;38.096;2022-12-07T01:10:45;101727.38;;;-7.27;57.59
69780;BME280;57052;55.602;38.096;2022-12-07T01:13:11;101715.91;;;-7.37;57.47
69780;BME280;57052;55.602;38.096;2022-12-07T01:15:41;101729.53;;;-7.32;57.06
69780;BME280;57052;55.602;38.096;2022-12-07T01:18:06;101720.44;;;-7.39;57.30
69780;BME280;57052;55.602;38.096;2022-12-07T01:20:32;101709.53;;;-7.46;57.32
69780;BME280;57052;55.602;38.096;2022-12-07T01:22:58;101719.69;;;-7.41;56.77
69780;BME280;57052;55.602;38.096;2022-12-07T01:25:23;101691.94;;;-7.56;57.33
69780;BME280;57052;55.602;38.096;2022-12-07T01:27:49;101713.72;;;-7.43;57.39
69780;BME280;57052;55.602;38.096;2022-12-07T01:30:14;101724.00;;;-7.40;57.69
69780;BME280;57052;55.602;38.096;2022-12-07T01:32:40;101719.69;;;-7.41;57.02
69780;BME280;57052;55.602;38.096;2022-12-07T01:35:06;101696.13;;;-7.54;57.47
69780;BME280;57052;55.602;38.096;2022-12-07T01:37:36;101713.72;;;-7.43;57.74
69780;BME280;57052;55.602;38.096;2022-12-07T01:40:03;101720.91;;;-7.45;57.28
69780;BME280;57052;55.602;38.096;2022-12-07T01:42:29;101713.13;;;-7.47;57.54
69780;BME280;57052;55.602;38.096;2022-12-07T01:47:53;101702.94;;;-7.51;57.69
69780;BME280;57052;55.602;38.096;2022-12-07T01:50:24;101698.66;;;-7.52;57.62
69780;BME280;57052;55.602;38.096;2022-12-07T01:52:51;101696.25;;;-7.55;57.50
69780;BME280;57052;55.602;38.096;2022-12-07T01:55:19;101689.91;;;-7.64;57.85
69780;BME280;57052;55.602;38.096;2022-12-07T01:57:47;101705.84;;;-7.54;57.23
69780;BME280;57052;55.602;38.096;2022-12-07T02:00:14;101682.00;;;-7.64;58.04
69780;BME280;57052;55.602;38.096;2022-12-07T02:02:56;101699.97;;;-7.58;57.50
69780;BME280;57052;55.602;38.096;2022-12-07T02:05:25;101684.78;;;-7.65;57.23
69780;BME280;57052;55.602;38.096;2022-12-07T02:07:53;101681.66;;;-7.70;57.32
69780;BME280;57052;55.602;38.096;2022-12-07T02:10:22;101694.69;;;-7.58;57.40
69780;BME280;57052;55.602;38.096;2022-12-07T02:12:58;101674.97;;;-7.74;57.04
69780;BME280;57052;55.602;38.096;2022-12-07T02:21:09;101699.34;;;-7.61;57.69
69780;BME280;57052;55.602;38.096;2022-12-07T02:23:46;101693.50;;;-7.65;57.58
69780;BME280;57052;55.602;38.096;2022-12-07T02:29:24;101702.09;;;-7.63;57.81
69780;BME280;57052;55.602;38.096;2022-12-07T02:32:11;101687.84;;;-7.71;57.67
69780;BME280;57052;55.602;38.096;2022-12-07T02:37:36;101684.66;;;-7.75;57.68
69780;BME280;57052;55.602;38.096;2022-12-07T02:42:49;101670.31;;;-7.82;57.88
69780;BME280;57052;55.602;38.096;2022-12-07T02:45:19;101684.50;;;-7.73;57.35
69780;BME280;57052;55.602;38.096;2022-12-07T02:47:49;101661.78;;;-7.86;57.84
69780;BME280;57052;55.602;38.096;2022-12-07T02:50:19;101672.31;;;-7.86;57.73
69780;BME280;57052;55.602;38.096;2022-12-07T02:52:45;101663.59;;;-7.86;57.59
69780;BME280;57052;55.602;38.096;2022-12-07T02:55:11;101690.75;;;-7.74;58.29
69780;BME280;57052;55.602;38.096;2022-12-07T02:57:50;101686.78;;;-7.80;58.10
69780;BME280;57052;55.602;38.096;2022-12-07T03:00:20;101674.34;;;-7.89;58.20
69780;BME280;57052;55.602;38.096;2022-12-07T03:03:20;101670.50;;;-7.96;57.79
69780;BME280;57052;55.602;38.096;2022-12-07T03:06:03;101691.41;;;-7.84;57.84
69780;BME280;57052;55.602;38.096;2022-12-07T03:08:44;101689.88;;;-7.86;57.59
69780;BME280;57052;55.602;38.096;2022-12-07T03:16:47;101679.94;;;-7.94;57.21
69780;BME280;57052;55.602;38.096;2022-12-07T03:19:18;101686.75;;;-7.91;58.03
69780;BME280;57052;55.602;38.096;2022-12-07T03:21:58;101683.63;;;-7.96;58.25
69780;BME280;57052;55.602;38.096;2022-12-07T03:24:55;101677.16;;;-8.03;57.51
69780;BME280;57052;55.602;38.096;2022-12-07T03:27:28;101665.31;;;-8.09;58.00
69780;BME280;57052;55.602;38.096;2022-12-07T03:30:02;101657.19;;;-8.17;57.83
69780;BME280;57052;55.602;38.096;2022-12-07T03:35:21;101680.28;;;-7.98;58.83
69780;BME280;57052;55.602;38.096;2022-12-07T03:37:59;101680.50;;;-8.01;57.41
69780;BME280;57052;55.602;38.096;2022-12-07T03:43:02;101668.19;;;-8.12;58.13
69780;BME280;57052;55.602;38.096;2022-12-07T03:45:42;101662.31;;;-8.15;57.80
69780;BME280;57052;55.602;38.096;2022-12-07T03:48:34;101674.25;;;-8.11;57.96
69780;BME280;57052;55.602;38.096;2022-12-07T03:53:44;101680.75;;;-8.04;57.84
69780;BME280;57052;55.602;38.096;2022-12-07T03:56:12;101676.66;;;-8.08;58.37
69780;BME280;57052;55.602;38.096;2022-12-07T03:58:39;101656.44;;;-8.19;58.70
69780;BME280;57052;55.602;38.096;2022-12-07T04:01:06;101687.78;;;-8.05;58.80
69780;BME280;57052;55.602;38.096;2022-12-07T04:03:32;101671.41;;;-8.08;58.17
69780;BME280;57052;55.602;38.096;2022-12-07T04:05:57;101641.41;;;-8.28;58.35
69780;BME280;57052;55.602;38.096;2022-12-07T04:08:24;101669.97;;;-8.12;58.45
69780;BME280;57052;55.602;38.096;2022-12-07T04:10:50;101675.72;;;-8.07;58.77
69780;BME280;57052;55.602;38.096;2022-12-07T04:13:16;101677.50;;;-8.08;57.99
69780;BME280;57052;55.602;38.096;2022-12-07T04:15:42;101660.75;;;-8.18;58.81
69780;BME280;57052;55.602;38.096;2022-12-07T04:18:07;101655.84;;;-8.22;58.49
69780;BME280;57052;55.602;38.096;2022-12-07T04:20:33;101671.88;;;-8.14;58.76
69780;BME280;57052;55.602;38.096;2022-12-07T04:22:58;101659.56;;;-8.25;58.35
69780;BME280;57052;55.602;38.096;2022-12-07T04:25:24;101661.81;;;-8.20;58.23
69780;BME280;57052;55.602;38.096;2022-12-07T04:27:50;101651.66;;;-8.25;58.58
69780;BME280;57052;55.602;38.096;2022-12-07T04:30:15;101645.13;;;-8.30;58.52
69780;BME280;57052;55.602;38.096;2022-12-07T04:32:41;101662.03;;;-8.23;58.80
69780;BME280;57052;55.602;38.096;2022-12-07T04:35:07;101674.50;;;-8.14;58.32
69780;BME280;57052;55.602;38.096;2022-12-07T04:37:33;101651.09;;;-8.28;58.50
69780;BME280;57052;55.602;38.096;2022-12-07T04:39:58;101671.13;;;-8.16;58.90
69780;BME280;57052;55.602;38.096;2022-12-07T04:42:24;101669.72;;;-8.20;58.48
69780;BME280;57052;55.602;38.096;2022-12-07T04:44:50;101649.97;;;-8.26;59.22
69780;BME280;57052;55.602;38.096;2022-12-07T04:47:16;101666.47;;;-8.24;58.69
69780;BME280;57052;55.602;38.096;2022-12-07T04:49:42;101656.25;;;-8.27;58.79
69780;BME280;57052;55.602;38.096;2022-12-07T04:52:07;101668.63;;;-8.18;58.49
69780;BME280;57052;55.602;38.096;2022-12-07T04:54:33;101668.63;;;-8.18;59.42
69780;BME280;57052;55.602;38.096;2022-12-07T04:56:59;101674.75;;;-8.17;58.51
69780;BME280;57052;55.602;38.096;2022-12-07T04:59:24;101665.38;;;-8.21;59.23
69780;BME280;57052;55.602;38.096;2022-12-07T05:01:50;101675.44;;;-8.15;58.51
69780;BME280;57052;55.602;38.096;2022-12-07T05:04:16;101659.06;;;-8.19;58.79
69780;BME280;57052;55.602;38.096;2022-12-07T05:06:43;101668.28;;;-8.24;59.26
69780;BME280;57052;55.602;38.096;2022-12-07T05:09:08;101677.72;;;-8.22;58.89
69780;BME280;57052;55.602;38.096;2022-12-07T05:11:34;101669.00;;;-8.22;59.04
69780;BME280;57052;55.602;38.096;2022-12-07T05:14:19;101670.78;;;-8.23;59.63
69780;BME280;57052;55.602;38.096;2022-12-07T05:16:47;101666.38;;;-8.22;59.03
69780;BME280;57052;55.602;38.096;2022-12-07T05:19:14;101676.75;;;-8.21;59.31
69780;BME280;57052;55.602;38.096;2022-12-07T05:21:40;101668.03;;;-8.21;59.40
69780;BME280;57052;55.602;38.096;2022-12-07T05:24:08;101669.84;;;-8.22;59.28
69780;BME280;57052;55.602;38.096;2022-12-07T05:26:35;101665.28;;;-8.20;59.62
69780;BME280;57052;55.602;38.096;2022-12-07T05:29:02;101674.13;;;-8.21;59.60
69780;BME280;57052;55.602;38.096;2022-12-07T05:31:28;101666.94;;;-8.19;59.25
69780;BME280;57052;55.602;38.096;2022-12-07T05:33:54;101660.25;;;-8.23;59.31
69780;BME280;57052;55.602;38.096;2022-12-07T05:36:20;101652.78;;;-8.27;58.88
69780;BME280;57052;55.602;38.096;2022-12-07T05:38:45;101650.59;;;-8.22;59.39
69780;BME280;57052;55.602;38.096;2022-12-07T05:41:16;101657.28;;;-8.18;59.54
69780;BME280;57052;55.602;38.096;2022-12-07T05:44:00;101659.31;;;-8.22;59.45
69780;BME280;57052;55.602;38.096;2022-12-07T05:46:26;101665.16;;;-8.18;59.29
69780;BME280;57052;55.602;38.096;2022-12-07T05:48:52;101661.69;;;-8.19;59.21
69780;BME280;57052;55.602;38.096;2022-12-07T05:51:18;101668.63;;;-8.18;59.50
69780;BME280;57052;55.602;38.096;2022-12-07T05:53:44;101667.69;;;-8.17;59.87
69780;BME280;57052;55.602;38.096;2022-12-07T05:56:10;101665.78;;;-8.15;59.71
69780;BME280;57052;55.602;38.096;2022-12-07T05:58:35;101660.03;;;-8.20;59.45
69780;BME280;57052;55.602;38.096;2022-12-07T06:01:19;101673.78;;;-8.16;59.52
69780;BME280;57052;55.602;38.096;2022-12-07T06:03:45;101668.50;;;-8.16;59.72
69780;BME280;57052;55.602;38.096;2022-12-07T06:06:11;101658.13;;;-8.18;59.44
69780;BME280;57052;55.602;38.096;2022-12-07T06:08:36;101622.19;;;-8.39;59.69
69780;BME280;57052;55.602;38.096;2022-12-07T06:11:02;101669.25;;;-8.14;59.67
69780;BME280;57052;55.602;38.096;2022-12-07T06:13:46;101627.44;;;-8.39;59.80
69780;BME280;57052;55.602;38.096;2022-12-07T06:16:12;101652.38;;;-8.23;60.17
69780;BME280;57052;55.602;38.096;2022-12-07T06:18:37;101669.00;;;-8.11;59.39
69780;BME280;57052;55.602;38.096;2022-12-07T06:21:03;101664.50;;;-8.09;59.53
69780;BME280;57052;55.602;38.096;2022-12-07T06:23:28;101656.94;;;-8.14;60.02
69780;BME280;57052;55.602;38.096;2022-12-07T06:26:03;101669.50;;;-8.06;59.94
69780;BME280;57052;55.602;38.096;2022-12-07T06:28:29;101662.38;;;-8.04;59.47
69780;BME280;57052;55.602;38.096;2022-12-07T06:31:01;101652.81;;;-8.05;59.95
69780;BME280;57052;55.602;38.096;2022-12-07T06:33:28;101664.75;;;-8.01;59.14
69780;BME280;57052;55.602;38.096;2022-12-07T06:35:53;101672.75;;;-8.03;59.50
69780;BME280;57052;55.602;38.096;2022-12-07T06:38:19;101674.53;;;-8.03;59.66
69780;BME280;57052;55.602;38.096;2022-12-07T06:40:44;101661.97;;;-8.11;59.70
69780;BME280;57052;55.602;38.096;2022-12-07T06:43:13;101668.34;;;-8.02;59.88
69780;BME280;57052;55.602;38.096;2022-12-07T06:45:44;101665.22;;;-7.96;59.72
69780;BME280;57052;55.602;38.096;2022-12-07T06:48:12;101664.91;;;-7.92;59.53
69780;BME280;57052;55.602;38.096;2022-12-07T06:50:38;101652.09;;;-7.96;58.87
69780;BME280;57052;55.602;38.096;2022-12-07T06:53:03;101655.34;;;-7.93;59.70
69780;BME280;57052;55.602;38.096;2022-12-07T06:55:29;101658.91;;;-7.94;58.97
69780;BME280;57052;55.602;38.096;2022-12-07T06:57:55;101659.75;;;-7.93;59.18
69780;BME280;57052;55.602;38.096;2022-12-07T07:00:20;101663.00;;;-7.90;59.35
69780;BME280;57052;55.602;38.096;2022-12-07T07:02:46;101666.34;;;-7.88;59.32
69780;BME280;57052;55.602;38.096;2022-12-07T07:05:12;101654.50;;;-7.93;59.91
69780;BME280;57052;55.602;38.096;2022-12-07T07:07:37;101662.78;;;-7.87;59.37
69780;BME280;57052;55.602;38.096;2022-12-07T07:10:03;101657.75;;;-7.90;59.73
69780;BME280;57052;55.602;38.096;2022-12-07T07:12:29;101673.03;;;-7.84;59.57
69780;BME280;57052;55.602;38.096;2022-12-07T07:14:55;101667.78;;;-7.84;59.33
69780;BME280;57052;55.602;38.096;2022-12-07T07:17:21;101660.25;;;-7.88;59.50
69780;BME280;57052;55.602;38.096;2022-12-07T07:19:46;101667.53;;;-7.81;59.99
69780;BME280;57052;55.602;38.096;2022-12-07T07:22:12;101680.31;;;-7.76;59.61
69780;BME280;57052;55.602;38.096;2022-12-07T07:24:39;101660.00;;;-7.85;59.67
69780;BME280;57052;55.602;38.096;2022-12-07T07:27:04;101665.19;;;-7.72;59.86
69780;BME280;57052;55.602;38.096;2022-12-07T07:29:30;101666.84;;;-7.71;59.20
69780;BME280;57052;55.602;38.096;2022-12-07T07:31:56;101657.41;;;-7.74;59.98
69780;BME280;57052;55.602;38.096;2022-12-07T07:34:21;101658.84;;;-7.70;59.55
69780;BME280;57052;55.602;38.096;2022-12-07T07:36:47;101665.78;;;-7.58;59.55
69780;BME280;57052;55.602;38.096;2022-12-07T07:39:12;101654.19;;;-7.55;59.62
69780;BME280;57052;55.602;38.096;2022-12-07T07:41:38;101655.97;;;-7.56;59.65
69780;BME280;57052;55.602;38.096;2022-12-07T07:44:04;101662.34;;;-7.47;60.08
69780;BME280;57052;55.602;38.096;2022-12-07T07:46:29;101655.16;;;-7.45;59.84
69780;BME280;57052;55.602;38.096;2022-12-07T07:48:55;101655.88;;;-7.43;59.41
69780;BME280;57052;55.602;38.096;2022-12-07T07:51:21;101663.41;;;-7.39;59.85
69780;BME280;57052;55.602;38.096;2022-12-07T07:53:46;101656.13;;;-7.35;59.40
69780;BME280;57052;55.602;38.096;2022-12-07T07:56:12;101662.69;;;-7.30;59.83
69780;BME280;57052;55.602;38.096;2022-12-07T07:58:37;101656.47;;;-7.29;59.40
69780;BME280;57052;55.602;38.096;2022-12-07T08:01:05;101662.19;;;-7.24;59.25
69780;BME280;57052;55.602;38.096;2022-12-07T08:03:31;101651.56;;;-7.22;59.05
69780;BME280;57052;55.602;38.096;2022-12-07T08:05:57;101652.91;;;-7.17;59.20
69780;BME280;57052;55.602;38.096;2022-12-07T08:08:23;101647.03;;;-7.20;59.05
69780;BME280;57052;55.602;38.096;2022-12-07T08:10:48;101651.69;;;-7.12;59.19
69780;BME280;57052;55.602;38.096;2022-12-07T08:13:17;101641.03;;;-7.11;59.11
69780;BME280;57052;55.602;38.096;2022-12-07T08:15:44;101652.75;;;-7.04;59.28
69780;BME280;57052;55.602;38.096;2022-12-07T08:18:11;101616.06;;;-7.17;59.54
69780;BME280;57052;55.602;38.096;2022-12-07T08:20:38;101651.19;;;-6.95;58.74
69780;BME280;57052;55.602;38.096;2022-12-07T08:23:05;101622.75;;;-7.01;58.99
69780;BME280;57052;55.602;38.096;2022-12-07T08:25:32;101633.22;;;-6.90;58.97
69780;BME280;57052;55.602;38.096;2022-12-07T08:27:57;101630.50;;;-6.89;58.85
69780;BME280;57052;55.602;38.096;2022-12-07T08:30:23;101643.00;;;-6.81;59.17
69780;BME280;57052;55.602;38.096;2022-12-07T08:32:49;101649.34;;;-6.73;59.39
69780;BME280;57052;55.602;38.096;2022-12-07T08:35:18;101634.84;;;-6.67;58.75
69780;BME280;57052;55.602;38.096;2022-12-07T08:37:44;101625.88;;;-6.65;59.10
69780;BME280;57052;55.602;38.096;2022-12-07T08:40:11;101629.28;;;-6.53;58.73
69780;BME280;57052;55.602;38.096;2022-12-07T08:42:41;101630.72;;;-6.49;58.79
69780;BME280;57052;55.602;38.096;2022-12-07T08:45:10;101631.75;;;-6.40;58.70
69780;BME280;57052;55.602;38.096;2022-12-07T08:47:43;101615.69;;;-6.37;58.29
69780;BME280;57052;55.602;38.096;2022-12-07T08:50:09;101629.00;;;-6.18;58.16
69780;BME280;57052;55.602;38.096;2022-12-07T08:52:37;101619.38;;;-6.08;58.35
69780;BME280;57052;55.602;38.096;2022-12-07T08:55:03;101628.16;;;-5.98;58.37
69780;BME280;57052;55.602;38.096;2022-12-07T08:57:32;101617.50;;;-5.97;58.20
69780;BME280;57052;55.602;38.096;2022-12-07T08:59:59;101622.72;;;-5.76;58.15
69780;BME280;57052;55.602;38.096;2022-12-07T09:02:25;101627.09;;;-5.65;57.29
69780;BME280;57052;55.602;38.096;2022-12-07T09:04:51;101620.06;;;-5.55;57.99
69780;BME280;57052;55.602;38.096;2022-12-07T09:07:16;101620.69;;;-5.42;57.39
69780;BME280;57052;55.602;38.096;2022-12-07T09:09:42;101606.25;;;-5.38;57.33
69780;BME280;57052;55.602;38.096;2022-12-07T09:12:08;101611.03;;;-5.23;56.76
69780;BME280;57052;55.602;38.096;2022-12-07T09:14:34;101598.25;;;-5.18;56.94
69780;BME280;57052;55.602;38.096;2022-12-07T09:17:11;101606.50;;;-5.01;56.79
69780;BME280;57052;55.602;38.096;2022-12-07T09:19:37;101591.22;;;-4.98;56.72
69780;BME280;57052;55.602;38.096;2022-12-07T09:22:03;101589.72;;;-4.81;56.49
69780;BME280;57052;55.602;38.096;2022-12-07T09:24:30;101568.88;;;-4.84;56.53
69780;BME280;57052;55.602;38.096;2022-12-07T09:26:57;101579.16;;;-4.62;56.35
69780;BME280;57052;55.602;38.096;2022-12-07T09:29:23;101580.00;;;-4.52;55.86
69780;BME280;57052;55.602;38.096;2022-12-07T09:31:49;101573.19;;;-4.45;56.04
69780;BME280;57052;55.602;38.096;2022-12-07T09:34:14;101554.69;;;-4.45;55.29
69780;BME280;57052;55.602;38.096;2022-12-07T09:36:40;101561.91;;;-4.28;55.22
69780;BME280;57052;55.602;38.096;2022-12-07T09:39:07;101554.97;;;-4.29;55.18
69780;BME280;57052;55.602;38.096;2022-12-07T09:41:33;101558.28;;;-4.17;55.17
69780;BME280;57052;55.602;38.096;2022-12-07T09:44:08;101549.91;;;-4.13;55.18
69780;BME280;57052;55.602;38.096;2022-12-07T09:46:36;101546.72;;;-4.16;52.80
69780;BME280;57052;55.602;38.096;2022-12-07T09:49:02;101554.91;;;-4.10;54.84
69780;BME280;57052;55.602;38.096;2022-12-07T09:51:28;101537.97;;;-4.17;55.02
69780;BME280;57052;55.602;38.096;2022-12-07T09:53:56;101546.97;;;-4.10;54.93
69780;BME280;57052;55.602;38.096;2022-12-07T09:56:23;101545.63;;;-4.14;54.63
69780;BME280;57052;55.602;38.096;2022-12-07T09:58:54;101527.38;;;-4.17;54.45
69780;BME280;57052;55.602;38.096;2022-12-07T10:01:22;101545.19;;;-4.09;54.90
69780;BME280;57052;55.602;38.096;2022-12-07T10:03:51;101545.31;;;-4.11;54.52
69780;BME280;57052;55.602;38.096;2022-12-07T10:06:18;101547.25;;;-4.13;54.65
69780;BME280;57052;55.602;38.096;2022-12-07T10:08:44;101540.59;;;-4.17;54.53
69780;BME280;57052;55.602;38.096;2022-12-07T10:11:10;101537.69;;;-4.14;54.41
69780;BME280;57052;55.602;38.096;2022-12-07T10:13:41;101540.59;;;-4.17;54.29
69780;BME280;57052;55.602;38.096;2022-12-07T10:16:38;101544.81;;;-4.24;52.72
69780;BME280;57052;55.602;38.096;2022-12-07T10:19:29;101539.78;;;-4.27;53.47
69780;BME280;57052;55.602;38.096;2022-12-07T10:22:10;101533.53;;;-4.35;53.85
69780;BME280;57052;55.602;38.096;2022-12-07T10:24:39;101550.47;;;-4.28;54.85
69780;BME280;57052;55.602;38.096;2022-12-07T10:27:19;101543.00;;;-4.33;53.49
69780;BME280;57052;55.602;38.096;2022-12-07T10:29:52;101510.34;;;-4.51;54.05
69780;BME280;57052;55.602;38.096;2022-12-07T10:35:28;101527.03;;;-4.41;53.42
69780;BME280;57052;55.602;38.096;2022-12-07T10:37:57;101535.75;;;-4.40;54.52
69780;BME280;57052;55.602;38.096;2022-12-07T10:40:33;101536.75;;;-4.41;54.34
69780;BME280;57052;55.602;38.096;2022-12-07T10:51:44;101512.59;;;-4.56;53.39
69780;BME280;57052;55.602;38.096;2022-12-07T10:56:56;101521.47;;;-4.57;54.24
69780;BME280;57052;55.602;38.096;2022-12-07T11:05:09;101506.59;;;-4.58;54.85
69780;BME280;57052;55.602;38.096;2022-12-07T11:08:10;101510.50;;;-4.62;53.74
69780;BME280;57052;55.602;38.096;2022-12-07T11:10:55;101503.53;;;-4.63;54.13
69780;BME280;57052;55.602;38.096;2022-12-07T11:21:12;101477.25;;;-4.65;54.56
69780;BME280;57052;55.602;38.096;2022-12-07T11:32:35;101482.84;;;-4.77;53.91
69780;BME280;57052;55.602;38.096;2022-12-07T11:36:02;101479.22;;;-4.76;54.40
69780;BME280;57052;55.602;38.096;2022-12-07T11:38:20;101487.16;;;-4.76;55.07
69780;BME280;57052;55.602;38.096;2022-12-07T11:40:49;101465.06;;;-4.85;55.14
69780;BME280;57052;55.602;38.096;2022-12-07T11:43:32;101474.78;;;-4.85;54.23
69780;BME280;57052;55.602;38.096;2022-12-07T11:48:37;101475.03;;;-4.88;54.71
69780;BME280;57052;55.602;38.096;2022-12-07T11:51:06;101473.53;;;-4.91;54.64
69780;BME280;57052;55.602;38.096;2022-12-07T11:53:40;101459.63;;;-4.93;54.87
69780;BME280;57052;55.602;38.096;2022-12-07T11:56:15;101449.75;;;-5.00;55.33
69780;BME280;57052;55.602;38.096;2022-12-07T12:03:44;101459.91;;;-5.05;55.24
69780;BME280;57052;55.602;38.096;2022-12-07T12:06:10;101446.56;;;-5.13;55.24
69780;BME280;57052;55.602;38.096;2022-12-07T12:09:04;101461.44;;;-5.12;54.43
69780;BME280;57052;55.602;38.096;2022-12-07T12:22:46;101445.59;;;-5.32;55.62
69780;BME280;57052;55.602;38.096;2022-12-07T12:25:38;101459.22;;;-5.36;55.16
69780;BME280;57052;55.602;38.096;2022-12-07T12:28:05;101441.97;;;-5.40;56.10
69780;BME280;57052;55.602;38.096;2022-12-07T12:35:41;101458.63;;;-5.49;56.44
69780;BME280;57052;55.602;38.096;2022-12-07T12:38:30;101459.06;;;-5.54;55.94
69780;BME280;57052;55.602;38.096;2022-12-07T12:40:57;101455.00;;;-5.58;56.64
69780;BME280;57052;55.602;38.096;2022-12-07T12:51:49;101449.28;;;-5.72;56.64
69780;BME280;57052;55.602;38.096;2022-12-07T13:00:15;101439.97;;;-5.86;56.81
69780;BME280;57052;55.602;38.096;2022-12-07T13:02:30;101444.28;;;-5.85;56.54
69780;BME280;57052;55.602;38.096;2022-12-07T13:08:10;101436.19;;;-5.93;56.78
69780;BME280;57052;55.602;38.096;2022-12-07T13:10:44;101438.16;;;-5.95;56.62
69780;BME280;57052;55.602;38.096;2022-12-07T13:15:50;101437.84;;;-6.02;56.78
69780;BME280;57052;55.602;38.096;2022-12-07T13:21:02;101435.75;;;-6.08;57.38
69780;BME280;57052;55.602;38.096;2022-12-07T13:26:15;101438.09;;;-6.14;57.01
69780;BME280;57052;55.602;38.096;2022-12-07T13:31:39;101423.19;;;-6.25;56.99
69780;BME280;57052;55.602;38.096;2022-12-07T13:34:29;101434.56;;;-6.24;56.74
69780;BME280;57052;55.602;38.096;2022-12-07T13:36:56;101438.84;;;-6.23;57.31
69780;BME280;57052;55.602;38.096;2022-12-07T13:39:24;101425.97;;;-6.26;57.02
69780;BME280;57052;55.602;38.096;2022-12-07T13:41:58;101403.69;;;-6.43;57.19
69780;BME280;57052;55.602;38.096;2022-12-07T13:44:27;101430.81;;;-6.31;57.88
69780;BME280;57052;55.602;38.096;2022-12-07T13:47:06;101444.22;;;-6.34;56.82
69780;BME280;57052;55.602;38.096;2022-12-07T13:49:55;101433.69;;;-6.34;57.10
69780;BME280;57052;55.602;38.096;2022-12-07T13:52:29;101424.22;;;-6.46;57.29
69780;BME280;57052;55.602;38.096;2022-12-07T13:55:30;101435.19;;;-6.41;57.32
69780;BME280;57052;55.602;38.096;2022-12-07T13:58:04;101419.91;;;-6.47;57.64
69780;BME280;57052;55.602;38.096;2022-12-07T14:00:30;101426.19;;;-6.39;57.49
69780;BME280;57052;55.602;38.096;2022-12-07T14:03:02;101421.59;;;-6.46;57.27
69780;BME280;57052;55.602;38.096;2022-12-07T14:05:32;101426.97;;;-6.48;57.40
69780;BME280;57052;55.602;38.096;2022-12-07T14:08:01;101416.56;;;-6.49;57.32
69780;BME280;57052;55.602;38.096;2022-12-07T14:10:29;101424.31;;;-6.48;57.91
69780;BME280;57052;55.602;38.096;2022-12-07T14:12:56;101423.47;;;-6.48;57.30
69780;BME280;57052;55.602;38.096;2022-12-07T14:15:26;101404.91;;;-6.57;57.86
69780;BME280;57052;55.602;38.096;2022-12-07T14:17:54;101416.69;;;-6.51;57.45
69780;BME280;57052;55.602;38.096;2022-12-07T14:20:40;101409.31;;;-6.57;57.99
69780;BME280;57052;55.602;38.096;2022-12-07T14:23:23;101399.44;;;-6.65;57.58
69780;BME280;57052;55.602;38.096;2022-12-07T14:25:51;101408.75;;;-6.61;58.07
69780;BME280;57052;55.602;38.096;2022-12-07T14:28:44;101404.31;;;-6.60;57.44
69780;BME280;57052;55.602;38.096;2022-12-07T14:31:14;101383.59;;;-6.74;57.80
69780;BME280;57052;55.602;38.096;2022-12-07T14:33:46;101392.38;;;-6.64;57.82
69780;BME280;57052;55.602;38.096;2022-12-07T14:36:13;101394.88;;;-6.63;58.55
69780;BME280;57052;55.602;38.096;2022-12-07T14:38:39;101403.47;;;-6.61;57.91
69780;BME280;57052;55.602;38.096;2022-12-07T14:41:18;101384.41;;;-6.74;58.08
69780;BME280;57052;55.602;38.096;2022-12-07T14:44:12;101407.19;;;-6.63;58.51
69780;BME280;57052;55.602;38.096;2022-12-07T14:46:38;101398.47;;;-6.64;57.91
69780;BME280;57052;55.602;38.096;2022-12-07T14:49:03;101400.66;;;-6.69;58.00
69780;BME280;57052;55.602;38.096;2022-12-07T14:51:29;101373.13;;;-6.85;58.66
69780;BME280;57052;55.602;38.096;2022-12-07T14:53:55;101398.31;;;-6.72;58.14